sensor_id;sensor_type;location;lat;lon;timestamp;pressure;altitude;pressure_sealevel;temperature;humidity
76551;BME280;65393;53.160;18.170;2023-02-15T00:01:52;103159.85;;;0.22;86.36
76551;BME280;65393;53.160;18.170;2023-02-15T00:04:22;103161.91;;;0.26;86.11
76551;BME280;65393;53.160;18.170;2023-02-15T00:06:49;103160.55;;;0.31;86.14
76551;BME280;65393;53.160;18.170;2023-02-15T00:09:16;103155.69;;;0.35;85.91
76551;BME280;65393;53.160;18.170;2023-02-15T00:11:43;103159.95;;;0.41;86.12
76551;BME280;65393;53.160;18.170;2023-02-15T00:14:19;103157.49;;;0.45;85.91
76551;BME280;65393;53.160;18.170;2023-02-15T00:16:47;103152.00;;;0.47;85.81
76551;BME280;65393;53.160;18.170;2023-02-15T00:19:15;103155.61;;;0.49;85.70
76551;BME280;65393;53.160;18.170;2023-02-15T00:21:43;103152.84;;;0.50;85.57
76551;BME280;65393;53.160;18.170;2023-02-15T00:24:11;103150.80;;;0.52;85.93
76551;BME280;65393;53.160;18.170;2023-02-15T00:26:39;103149.39;;;0.52;85.70
76551;BME280;65393;53.160;18.170;2023-02-15T00:29:08;103149.89;;;0.51;85.96
76551;BME280;65393;53.160;18.170;2023-02-15T00:31:36;103153.73;;;0.51;85.84
76551;BME280;65393;53.160;18.170;2023-02-15T00:34:10;103152.70;;;0.52;85.74
76551;BME280;65393;53.160;18.170;2023-02-15T00:36:38;103148.33;;;0.52;85.89
76551;BME280;65393;53.160;18.170;2023-02-15T00:39:05;103145.55;;;0.52;85.90
76551;BME280;65393;53.160;18.170;2023-02-15T00:41:33;103142.40;;;0.52;85.99
76551;BME280;65393;53.160;18.170;2023-02-15T00:44:00;103142.27;;;0.53;85.87
76551;BME280;65393;53.160;18.170;2023-02-15T00:46:30;103142.14;;;0.54;86.22
76551;BME280;65393;53.160;18.170;2023-02-15T00:48:57;103140.04;;;0.54;86.16
76551;BME280;65393;53.160;18.170;2023-02-15T00:51:24;103144.95;;;0.54;85.89
76551;BME280;65393;53.160;18.170;2023-02-15T00:53:51;103145.84;;;0.55;86.04
76551;BME280;65393;53.160;18.170;2023-02-15T00:56:19;103144.82;;;0.55;85.98
76551;BME280;65393;53.160;18.170;2023-02-15T00:58:46;103142.46;;;0.53;85.98
76551;BME280;65393;53.160;18.170;2023-02-15T01:01:19;103141.52;;;0.51;85.89
76551;BME280;65393;53.160;18.170;2023-02-15T01:03:47;103139.42;;;0.52;85.99
76551;BME280;65393;53.160;18.170;2023-02-15T01:06:15;103141.20;;;0.52;86.02
76551;BME280;65393;53.160;18.170;2023-02-15T01:08:44;103137.46;;;0.50;86.28
76551;BME280;65393;53.160;18.170;2023-02-15T01:11:20;103133.45;;;0.51;86.16
76551;BME280;65393;53.160;18.170;2023-02-15T01:13:56;103132.64;;;0.52;86.06
76551;BME280;65393;53.160;18.170;2023-02-15T01:16:25;103135.90;;;0.55;85.99
76551;BME280;65393;53.160;18.170;2023-02-15T01:18:53;103138.48;;;0.58;86.00
76551;BME280;65393;53.160;18.170;2023-02-15T01:21:22;103140.80;;;0.59;86.21
76551;BME280;65393;53.160;18.170;2023-02-15T01:23:49;103138.42;;;0.61;86.00
76551;BME280;65393;53.160;18.170;2023-02-15T01:26:16;103139.65;;;0.61;86.18
76551;BME280;65393;53.160;18.170;2023-02-15T01:28:44;103134.54;;;0.60;86.27
76551;BME280;65393;53.160;18.170;2023-02-15T01:31:14;103130.31;;;0.59;86.28
76551;BME280;65393;53.160;18.170;2023-02-15T01:33:41;103126.70;;;0.61;86.48
76551;BME280;65393;53.160;18.170;2023-02-15T01:36:09;103121.70;;;0.63;86.28
76551;BME280;65393;53.160;18.170;2023-02-15T01:38:36;103118.84;;;0.65;86.34
76551;BME280;65393;53.160;18.170;2023-02-15T01:41:05;103115.36;;;0.69;86.20
76551;BME280;65393;53.160;18.170;2023-02-15T01:46:23;103104.30;;;0.77;86.13
76551;BME280;65393;53.160;18.170;2023-02-15T01:48:54;103100.64;;;0.83;86.01
76551;BME280;65393;53.160;18.170;2023-02-15T01:51:27;103098.98;;;0.85;85.97
76551;BME280;65393;53.160;18.170;2023-02-15T01:54:47;103100.64;;;0.86;86.02
76551;BME280;65393;53.160;18.170;2023-02-15T01:56:47;103099.92;;;0.86;85.97
76551;BME280;65393;53.160;18.170;2023-02-15T01:59:19;103099.79;;;0.87;85.99
76551;BME280;65393;53.160;18.170;2023-02-15T02:01:51;103095.58;;;0.87;85.95
76551;BME280;65393;53.160;18.170;2023-02-15T02:04:26;103091.70;;;0.86;86.08
76551;BME280;65393;53.160;18.170;2023-02-15T02:06:59;103088.89;;;0.85;86.09
76551;BME280;65393;53.160;18.170;2023-02-15T02:09:26;103088.17;;;0.85;86.09
76551;BME280;65393;53.160;18.170;2023-02-15T02:11:53;103085.80;;;0.83;86.03
76551;BME280;65393;53.160;18.170;2023-02-15T02:14:22;103083.90;;;0.83;86.34
76551;BME280;65393;53.160;18.170;2023-02-15T02:16:57;103083.98;;;0.81;86.28
76551;BME280;65393;53.160;18.170;2023-02-15T02:41:49;103082.23;;;0.72;85.93
76551;BME280;65393;53.160;18.170;2023-02-15T02:45:03;103086.66;;;0.73;86.23
76551;BME280;65393;53.160;18.170;2023-02-15T02:47:21;103085.59;;;0.73;86.23
76551;BME280;65393;53.160;18.170;2023-02-15T02:49:52;103085.58;;;0.72;86.33
76551;BME280;65393;53.160;18.170;2023-02-15T02:52:47;103084.21;;;0.73;86.19
76551;BME280;65393;53.160;18.170;2023-02-15T02:57:57;103081.40;;;0.78;86.36
76551;BME280;65393;53.160;18.170;2023-02-15T03:00:31;103078.23;;;0.81;86.01
76551;BME280;65393;53.160;18.170;2023-02-15T03:03:06;103077.10;;;0.84;85.98
76551;BME280;65393;53.160;18.170;2023-02-15T03:05:41;103071.90;;;0.85;86.00
76551;BME280;65393;53.160;18.170;2023-02-15T03:08:08;103065.61;;;0.85;86.07
76551;BME280;65393;53.160;18.170;2023-02-15T03:10:38;103065.88;;;0.83;85.82
76551;BME280;65393;53.160;18.170;2023-02-15T03:13:06;103067.94;;;0.82;86.26
76551;BME280;65393;53.160;18.170;2023-02-15T03:15:38;103067.55;;;0.81;86.08
76551;BME280;65393;53.160;18.170;2023-02-15T03:18:48;103060.07;;;0.77;86.21
76551;BME280;65393;53.160;18.170;2023-02-15T03:21:25;103060.49;;;0.75;86.30
76551;BME280;65393;53.160;18.170;2023-02-15T03:24:09;103057.58;;;0.71;85.85
76551;BME280;65393;53.160;18.170;2023-02-15T03:26:37;103052.45;;;0.69;86.01
76551;BME280;65393;53.160;18.170;2023-02-15T03:29:06;103053.54;;;0.66;85.99
76551;BME280;65393;53.160;18.170;2023-02-15T03:31:41;103052.89;;;0.63;86.06
76551;BME280;65393;53.160;18.170;2023-02-15T03:34:11;103052.39;;;0.60;86.04
76551;BME280;65393;53.160;18.170;2023-02-15T03:39:38;103057.82;;;0.60;86.15
76551;BME280;65393;53.160;18.170;2023-02-15T03:42:16;103059.53;;;0.63;86.61
76551;BME280;65393;53.160;18.170;2023-02-15T03:44:54;103059.17;;;0.63;86.44
76551;BME280;65393;53.160;18.170;2023-02-15T03:47:30;103057.17;;;0.65;86.25
76551;BME280;65393;53.160;18.170;2023-02-15T03:50:02;103053.92;;;0.67;86.28
76551;BME280;65393;53.160;18.170;2023-02-15T03:52:52;103052.02;;;0.72;86.47
76551;BME280;65393;53.160;18.170;2023-02-15T03:55:20;103056.23;;;0.73;86.08
76551;BME280;65393;53.160;18.170;2023-02-15T03:57:47;103054.40;;;0.70;86.29
76551;BME280;65393;53.160;18.170;2023-02-15T04:00:36;103051.83;;;0.67;86.23
76551;BME280;65393;53.160;18.170;2023-02-15T04:03:41;103055.57;;;0.65;86.13
76551;BME280;65393;53.160;18.170;2023-02-15T04:06:09;103053.48;;;0.61;86.06
76551;BME280;65393;53.160;18.170;2023-02-15T04:08:36;103051.98;;;0.58;86.07
76551;BME280;65393;53.160;18.170;2023-02-15T04:11:21;103053.77;;;0.55;86.23
76551;BME280;65393;53.160;18.170;2023-02-15T04:13:48;103052.59;;;0.52;86.07
76551;BME280;65393;53.160;18.170;2023-02-15T04:16:23;103055.91;;;0.52;86.27
76551;BME280;65393;53.160;18.170;2023-02-15T04:18:50;103051.15;;;0.50;86.01
76551;BME280;65393;53.160;18.170;2023-02-15T04:21:36;103051.08;;;0.48;86.36
76551;BME280;65393;53.160;18.170;2023-02-15T04:24:21;103047.16;;;0.47;86.33
76551;BME280;65393;53.160;18.170;2023-02-15T04:27:06;103044.54;;;0.47;86.33
76551;BME280;65393;53.160;18.170;2023-02-15T04:29:33;103049.21;;;0.46;86.34
76551;BME280;65393;53.160;18.170;2023-02-15T04:32:01;103050.89;;;0.48;86.28
76551;BME280;65393;53.160;18.170;2023-02-15T04:34:28;103048.54;;;0.51;86.60
76551;BME280;65393;53.160;18.170;2023-02-15T04:36:55;103050.56;;;0.54;86.68
76551;BME280;65393;53.160;18.170;2023-02-15T04:39:22;103046.95;;;0.50;86.63
76551;BME280;65393;53.160;18.170;2023-02-15T04:41:49;103044.45;;;0.49;86.43
76551;BME280;65393;53.160;18.170;2023-02-15T04:44:16;103040.80;;;0.49;86.61
76551;BME280;65393;53.160;18.170;2023-02-15T04:46:42;103035.77;;;0.50;86.50
76551;BME280;65393;53.160;18.170;2023-02-15T04:49:09;103039.41;;;0.49;86.48
76551;BME280;65393;53.160;18.170;2023-02-15T04:51:36;103034.34;;;0.49;86.42
76551;BME280;65393;53.160;18.170;2023-02-15T04:54:03;103033.83;;;0.50;86.56
76551;BME280;65393;53.160;18.170;2023-02-15T04:56:30;103027.93;;;0.51;86.72
76551;BME280;65393;53.160;18.170;2023-02-15T04:58:57;103031.84;;;0.53;86.75
76551;BME280;65393;53.160;18.170;2023-02-15T05:01:24;103031.23;;;0.51;86.57
76551;BME280;65393;53.160;18.170;2023-02-15T05:03:50;103024.38;;;0.49;86.92
76551;BME280;65393;53.160;18.170;2023-02-15T05:06:17;103027.86;;;0.49;86.67
76551;BME280;65393;53.160;18.170;2023-02-15T05:08:44;103022.64;;;0.49;86.78
76551;BME280;65393;53.160;18.170;2023-02-15T05:11:11;103028.35;;;0.48;86.79
76551;BME280;65393;53.160;18.170;2023-02-15T05:13:37;103027.43;;;0.47;87.03
76551;BME280;65393;53.160;18.170;2023-02-15T05:16:04;103033.08;;;0.44;86.78
76551;BME280;65393;53.160;18.170;2023-02-15T05:18:31;103029.36;;;0.43;86.90
76551;BME280;65393;53.160;18.170;2023-02-15T05:20:58;103028.54;;;0.44;86.86
76551;BME280;65393;53.160;18.170;2023-02-15T05:23:24;103032.91;;;0.45;87.01
76551;BME280;65393;53.160;18.170;2023-02-15T05:25:51;103030.53;;;0.46;87.14
76551;BME280;65393;53.160;18.170;2023-02-15T05:28:37;103029.98;;;0.50;87.11
76551;BME280;65393;53.160;18.170;2023-02-15T05:31:12;103028.40;;;0.49;87.03
76551;BME280;65393;53.160;18.170;2023-02-15T05:33:40;103033.15;;;0.50;86.74
76551;BME280;65393;53.160;18.170;2023-02-15T05:36:07;103028.95;;;0.50;86.84
76551;BME280;65393;53.160;18.170;2023-02-15T05:38:35;103029.31;;;0.50;86.36
76551;BME280;65393;53.160;18.170;2023-02-15T05:41:09;103027.38;;;0.50;86.72
76551;BME280;65393;53.160;18.170;2023-02-15T05:43:37;103031.44;;;0.52;86.54
76551;BME280;65393;53.160;18.170;2023-02-15T05:46:04;103033.60;;;0.53;86.66
76551;BME280;65393;53.160;18.170;2023-02-15T05:48:32;103032.98;;;0.55;86.51
76551;BME280;65393;53.160;18.170;2023-02-15T05:51:07;103033.34;;;0.59;86.73
76551;BME280;65393;53.160;18.170;2023-02-15T05:53:37;103034.42;;;0.60;86.86
76551;BME280;65393;53.160;18.170;2023-02-15T05:56:06;103032.35;;;0.61;86.82
76551;BME280;65393;53.160;18.170;2023-02-15T05:58:38;103028.36;;;0.62;86.53
76551;BME280;65393;53.160;18.170;2023-02-15T06:01:13;103024.48;;;0.61;86.44
76551;BME280;65393;53.160;18.170;2023-02-15T06:03:41;103029.49;;;0.64;86.68
76551;BME280;65393;53.160;18.170;2023-02-15T06:06:08;103030.45;;;0.66;86.56
76551;BME280;65393;53.160;18.170;2023-02-15T06:08:36;103030.49;;;0.67;86.55
76551;BME280;65393;53.160;18.170;2023-02-15T06:11:04;103030.95;;;0.69;86.31
76551;BME280;65393;53.160;18.170;2023-02-15T06:13:31;103028.01;;;0.70;86.40
76551;BME280;65393;53.160;18.170;2023-02-15T06:15:58;103028.18;;;0.70;86.20
76551;BME280;65393;53.160;18.170;2023-02-15T06:18:25;103027.31;;;0.70;86.38
76551;BME280;65393;53.160;18.170;2023-02-15T06:20:52;103025.99;;;0.73;86.41
76551;BME280;65393;53.160;18.170;2023-02-15T06:23:19;103027.14;;;0.75;86.35
76551;BME280;65393;53.160;18.170;2023-02-15T06:25:46;103030.14;;;0.77;86.53
76551;BME280;65393;53.160;18.170;2023-02-15T06:28:13;103032.00;;;0.79;86.33
76551;BME280;65393;53.160;18.170;2023-02-15T06:30:40;103032.95;;;0.81;86.30
76551;BME280;65393;53.160;18.170;2023-02-15T06:33:07;103035.59;;;0.81;86.29
76551;BME280;65393;53.160;18.170;2023-02-15T06:35:33;103033.51;;;0.82;86.17
76551;BME280;65393;53.160;18.170;2023-02-15T06:38:00;103030.39;;;0.83;86.15
76551;BME280;65393;53.160;18.170;2023-02-15T06:40:27;103029.08;;;0.85;86.08
76551;BME280;65393;53.160;18.170;2023-02-15T06:42:54;103033.27;;;0.85;86.16
76551;BME280;65393;53.160;18.170;2023-02-15T06:45:20;103031.19;;;0.85;86.26
76551;BME280;65393;53.160;18.170;2023-02-15T06:47:47;103025.15;;;0.87;86.23
76551;BME280;65393;53.160;18.170;2023-02-15T06:50:14;103027.13;;;0.88;86.23
76551;BME280;65393;53.160;18.170;2023-02-15T06:52:40;103025.95;;;0.89;86.03
76551;BME280;65393;53.160;18.170;2023-02-15T06:55:07;103030.55;;;0.91;86.04
76551;BME280;65393;53.160;18.170;2023-02-15T06:57:34;103030.60;;;0.93;86.25
76551;BME280;65393;53.160;18.170;2023-02-15T07:00:00;103028.84;;;0.97;86.22
76551;BME280;65393;53.160;18.170;2023-02-15T07:02:27;103024.38;;;0.99;86.05
76551;BME280;65393;53.160;18.170;2023-02-15T07:04:55;103022.40;;;1.02;86.11
76551;BME280;65393;53.160;18.170;2023-02-15T07:07:21;103021.30;;;1.05;86.19
76551;BME280;65393;53.160;18.170;2023-02-15T07:09:51;103015.17;;;1.09;86.08
76551;BME280;65393;53.160;18.170;2023-02-15T07:12:21;103010.88;;;1.12;85.95
76551;BME280;65393;53.160;18.170;2023-02-15T07:15:08;103006.25;;;1.15;85.81
76551;BME280;65393;53.160;18.170;2023-02-15T07:17:36;102999.53;;;1.17;85.83
76551;BME280;65393;53.160;18.170;2023-02-15T07:20:09;102997.40;;;1.21;85.92
76551;BME280;65393;53.160;18.170;2023-02-15T07:22:36;102993.12;;;1.24;86.06
76551;BME280;65393;53.160;18.170;2023-02-15T07:25:05;102992.17;;;1.26;85.77
76551;BME280;65393;53.160;18.170;2023-02-15T07:27:32;102990.64;;;1.32;86.11
76551;BME280;65393;53.160;18.170;2023-02-15T07:30:00;102994.89;;;1.38;85.96
76551;BME280;65393;53.160;18.170;2023-02-15T07:32:28;102989.05;;;1.42;85.64
76551;BME280;65393;53.160;18.170;2023-02-15T07:34:56;102989.24;;;1.47;85.71
76551;BME280;65393;53.160;18.170;2023-02-15T07:37:23;102990.08;;;1.51;85.67
76551;BME280;65393;53.160;18.170;2023-02-15T07:39:50;102991.57;;;1.54;85.57
76551;BME280;65393;53.160;18.170;2023-02-15T07:42:17;102991.72;;;1.58;85.36
76551;BME280;65393;53.160;18.170;2023-02-15T07:44:47;102989.70;;;1.60;85.29
76551;BME280;65393;53.160;18.170;2023-02-15T07:47:14;102988.64;;;1.65;85.37
76551;BME280;65393;53.160;18.170;2023-02-15T07:49:41;102983.36;;;1.69;85.54
76551;BME280;65393;53.160;18.170;2023-02-15T07:52:07;102978.23;;;1.68;85.36
76551;BME280;65393;53.160;18.170;2023-02-15T07:54:34;102978.57;;;1.68;85.12
76551;BME280;65393;53.160;18.170;2023-02-15T07:57:01;102980.73;;;1.69;85.24
76551;BME280;65393;53.160;18.170;2023-02-15T07:59:28;102972.49;;;1.74;85.20
76551;BME280;65393;53.160;18.170;2023-02-15T08:01:55;102973.27;;;1.81;85.24
76551;BME280;65393;53.160;18.170;2023-02-15T08:04:23;102965.81;;;1.89;85.26
76551;BME280;65393;53.160;18.170;2023-02-15T08:06:52;102959.34;;;1.94;85.04
76551;BME280;65393;53.160;18.170;2023-02-15T08:09:20;102958.33;;;1.95;84.74
76551;BME280;65393;53.160;18.170;2023-02-15T08:11:47;102955.17;;;1.96;84.67
76551;BME280;65393;53.160;18.170;2023-02-15T08:14:16;102949.97;;;1.97;84.69
76551;BME280;65393;53.160;18.170;2023-02-15T08:16:53;102943.66;;;2.02;85.01
76551;BME280;65393;53.160;18.170;2023-02-15T08:19:26;102941.38;;;2.07;84.85
76551;BME280;65393;53.160;18.170;2023-02-15T08:24:25;102934.38;;;2.18;84.81
76551;BME280;65393;53.160;18.170;2023-02-15T08:26:58;102930.34;;;2.24;84.73
76551;BME280;65393;53.160;18.170;2023-02-15T08:29:27;102929.33;;;2.31;84.85
76551;BME280;65393;53.160;18.170;2023-02-15T08:31:59;102928.79;;;2.36;84.78
76551;BME280;65393;53.160;18.170;2023-02-15T08:34:31;102926.74;;;2.43;84.77
76551;BME280;65393;53.160;18.170;2023-02-15T08:36:58;102926.98;;;2.51;84.61
76551;BME280;65393;53.160;18.170;2023-02-15T08:39:24;102923.38;;;2.60;84.48
76551;BME280;65393;53.160;18.170;2023-02-15T08:41:51;102922.95;;;2.69;84.53
76551;BME280;65393;53.160;18.170;2023-02-15T08:44:19;102919.81;;;2.75;84.52
76551;BME280;65393;53.160;18.170;2023-02-15T08:46:48;102918.57;;;2.81;84.07
76551;BME280;65393;53.160;18.170;2023-02-15T08:49:20;102915.40;;;2.87;84.11
76551;BME280;65393;53.160;18.170;2023-02-15T08:51:48;102909.98;;;2.93;84.24
76551;BME280;65393;53.160;18.170;2023-02-15T08:54:17;102908.50;;;2.98;84.03
76551;BME280;65393;53.160;18.170;2023-02-15T08:56:45;102902.99;;;3.01;84.14
76551;BME280;65393;53.160;18.170;2023-02-15T08:59:15;102896.27;;;3.05;83.96
76551;BME280;65393;53.160;18.170;2023-02-15T09:01:43;102893.68;;;3.13;83.89
76551;BME280;65393;53.160;18.170;2023-02-15T09:04:11;102896.35;;;3.21;83.63
76551;BME280;65393;53.160;18.170;2023-02-15T09:06:40;102900.57;;;3.28;83.49
76551;BME280;65393;53.160;18.170;2023-02-15T09:09:07;102898.14;;;3.35;83.58
76551;BME280;65393;53.160;18.170;2023-02-15T09:11:40;102892.73;;;3.44;83.28
76551;BME280;65393;53.160;18.170;2023-02-15T09:14:12;102894.92;;;3.53;83.25
76551;BME280;65393;53.160;18.170;2023-02-15T09:16:42;102890.92;;;3.62;83.00
76551;BME280;65393;53.160;18.170;2023-02-15T09:19:11;102890.34;;;3.67;82.63
76551;BME280;65393;53.160;18.170;2023-02-15T09:21:38;102889.58;;;3.71;82.64
76551;BME280;65393;53.160;18.170;2023-02-15T09:24:12;102887.75;;;3.75;82.41
76551;BME280;65393;53.160;18.170;2023-02-15T09:26:41;102883.41;;;3.79;82.38
76551;BME280;65393;53.160;18.170;2023-02-15T09:29:08;102881.95;;;3.83;82.16
76551;BME280;65393;53.160;18.170;2023-02-15T09:31:44;102880.45;;;3.86;82.04
76551;BME280;65393;53.160;18.170;2023-02-15T09:34:13;102874.05;;;3.90;81.78
76551;BME280;65393;53.160;18.170;2023-02-15T09:36:40;102875.58;;;3.95;81.61
76551;BME280;65393;53.160;18.170;2023-02-15T09:39:11;102872.52;;;4.00;81.67
76551;BME280;65393;53.160;18.170;2023-02-15T09:53:14;102862.49;;;4.23;80.36
76551;BME280;65393;53.160;18.170;2023-02-15T10:07:05;102848.22;;;4.37;79.36
76551;BME280;65393;53.160;18.170;2023-02-15T10:10:10;102844.97;;;4.25;77.65
76551;BME280;65393;53.160;18.170;2023-02-15T10:23:38;102836.81;;;3.98;78.59
76551;BME280;65393;53.160;18.170;2023-02-15T10:26:29;102833.81;;;3.98;78.41
76551;BME280;65393;53.160;18.170;2023-02-15T10:29:07;102826.92;;;3.95;78.25
76551;BME280;65393;53.160;18.170;2023-02-15T10:36:51;102833.20;;;3.94;77.68
76551;BME280;65393;53.160;18.170;2023-02-15T10:39:48;102832.46;;;3.92;78.26
76551;BME280;65393;53.160;18.170;2023-02-15T10:45:10;102823.65;;;3.91;77.98
76551;BME280;65393;53.160;18.170;2023-02-15T10:50:29;102818.48;;;3.95;77.93
76551;BME280;65393;53.160;18.170;2023-02-15T10:56:03;102818.05;;;4.00;77.47
76551;BME280;65393;53.160;18.170;2023-02-15T11:06:59;102806.77;;;4.06;77.56
76551;BME280;65393;53.160;18.170;2023-02-15T11:09:50;102806.13;;;4.09;77.37
76551;BME280;65393;53.160;18.170;2023-02-15T11:12:24;102800.19;;;4.11;77.88
76551;BME280;65393;53.160;18.170;2023-02-15T11:17:37;102797.52;;;4.17;77.03
76551;BME280;65393;53.160;18.170;2023-02-15T11:20:27;102794.39;;;4.19;76.74
76551;BME280;65393;53.160;18.170;2023-02-15T11:22:55;102790.94;;;4.21;76.57
76551;BME280;65393;53.160;18.170;2023-02-15T11:25:44;102789.19;;;4.22;77.13
76551;BME280;65393;53.160;18.170;2023-02-15T11:28:30;102782.07;;;4.26;76.97
76551;BME280;65393;53.160;18.170;2023-02-15T11:31:02;102773.23;;;4.32;77.22
76551;BME280;65393;53.160;18.170;2023-02-15T11:33:36;102769.30;;;4.38;77.58
76551;BME280;65393;53.160;18.170;2023-02-15T11:36:21;102767.23;;;4.40;76.52
76551;BME280;65393;53.160;18.170;2023-02-15T11:38:52;102764.92;;;4.39;76.58
76551;BME280;65393;53.160;18.170;2023-02-15T11:41:27;102765.43;;;4.38;76.42
76551;BME280;65393;53.160;18.170;2023-02-15T11:44:05;102755.09;;;4.40;76.14
76551;BME280;65393;53.160;18.170;2023-02-15T11:46:32;102752.91;;;4.44;77.04
76551;BME280;65393;53.160;18.170;2023-02-15T11:48:59;102751.67;;;4.44;75.69
76551;BME280;65393;53.160;18.170;2023-02-15T11:51:27;102748.31;;;4.43;75.97
76551;BME280;65393;53.160;18.170;2023-02-15T11:53:56;102750.78;;;4.43;76.01
76551;BME280;65393;53.160;18.170;2023-02-15T11:56:24;102751.19;;;4.46;75.78
76551;BME280;65393;53.160;18.170;2023-02-15T11:59:10;102751.23;;;4.49;75.92
76551;BME280;65393;53.160;18.170;2023-02-15T12:01:42;102747.35;;;4.49;75.67
76551;BME280;65393;53.160;18.170;2023-02-15T12:04:28;102750.35;;;4.50;75.93
76551;BME280;65393;53.160;18.170;2023-02-15T12:12:26;102740.33;;;4.59;76.06
76551;BME280;65393;53.160;18.170;2023-02-15T12:14:59;102737.47;;;4.65;75.79
76551;BME280;65393;53.160;18.170;2023-02-15T12:17:29;102736.03;;;4.73;76.54
76551;BME280;65393;53.160;18.170;2023-02-15T12:20:00;102733.16;;;4.80;75.73
76551;BME280;65393;53.160;18.170;2023-02-15T12:22:35;102730.02;;;4.82;75.86
76551;BME280;65393;53.160;18.170;2023-02-15T12:25:21;102729.84;;;4.81;75.32
76551;BME280;65393;53.160;18.170;2023-02-15T12:27:49;102723.35;;;4.82;75.02
76551;BME280;65393;53.160;18.170;2023-02-15T12:33:02;102716.25;;;4.78;75.88
76551;BME280;65393;53.160;18.170;2023-02-15T12:35:33;102711.41;;;4.73;74.97
76551;BME280;65393;53.160;18.170;2023-02-15T12:38:05;102708.52;;;4.69;75.60
76551;BME280;65393;53.160;18.170;2023-02-15T12:40:58;102705.83;;;4.66;75.82
76551;BME280;65393;53.160;18.170;2023-02-15T12:43:27;102703.37;;;4.66;75.70
76551;BME280;65393;53.160;18.170;2023-02-15T12:46:23;102704.64;;;4.69;75.37
76551;BME280;65393;53.160;18.170;2023-02-15T12:49:11;102698.70;;;4.71;75.60
76551;BME280;65393;53.160;18.170;2023-02-15T12:56:58;102687.42;;;4.70;75.27
76551;BME280;65393;53.160;18.170;2023-02-15T12:59:25;102683.86;;;4.76;75.23
76551;BME280;65393;53.160;18.170;2023-02-15T13:01:52;102682.50;;;4.80;75.25
76551;BME280;65393;53.160;18.170;2023-02-15T13:04:26;102678.83;;;4.82;74.60
76551;BME280;65393;53.160;18.170;2023-02-15T13:07:00;102670.27;;;4.84;74.89
76551;BME280;65393;53.160;18.170;2023-02-15T13:12:26;102670.26;;;4.74;74.68
76551;BME280;65393;53.160;18.170;2023-02-15T13:14:55;102665.08;;;4.68;75.02
76551;BME280;65393;53.160;18.170;2023-02-15T13:17:30;102661.86;;;4.65;75.32
76551;BME280;65393;53.160;18.170;2023-02-15T13:20:16;102662.44;;;4.69;75.24
76551;BME280;65393;53.160;18.170;2023-02-15T13:22:46;102655.73;;;4.79;75.30
76551;BME280;65393;53.160;18.170;2023-02-15T13:25:19;102654.80;;;4.86;75.06
76551;BME280;65393;53.160;18.170;2023-02-15T13:27:52;102651.75;;;4.93;75.25
76551;BME280;65393;53.160;18.170;2023-02-15T13:30:30;102649.40;;;5.01;74.93
76551;BME280;65393;53.160;18.170;2023-02-15T13:33:31;102649.04;;;5.11;74.94
76551;BME280;65393;53.160;18.170;2023-02-15T13:36:15;102649.30;;;5.15;74.81
76551;BME280;65393;53.160;18.170;2023-02-15T13:44:15;102644.64;;;5.11;74.52
76551;BME280;65393;53.160;18.170;2023-02-15T13:46:56;102645.10;;;5.06;74.56
76551;BME280;65393;53.160;18.170;2023-02-15T13:49:39;102645.92;;;5.03;74.94
76551;BME280;65393;53.160;18.170;2023-02-15T13:52:21;102645.04;;;5.02;75.14
76551;BME280;65393;53.160;18.170;2023-02-15T13:58:06;102638.94;;;4.95;75.09
76551;BME280;65393;53.160;18.170;2023-02-15T14:01:08;102634.09;;;4.89;74.96
76551;BME280;65393;53.160;18.170;2023-02-15T14:19:57;102612.94;;;4.54;75.71
76551;BME280;65393;53.160;18.170;2023-02-15T14:22:35;102612.19;;;4.51;75.56
76551;BME280;65393;53.160;18.170;2023-02-15T14:25:14;102617.77;;;4.50;75.77
76551;BME280;65393;53.160;18.170;2023-02-15T14:28:08;102618.06;;;4.45;75.80
76551;BME280;65393;53.160;18.170;2023-02-15T14:30:38;102619.80;;;4.44;75.69
76551;BME280;65393;53.160;18.170;2023-02-15T14:33:31;102617.34;;;4.43;75.86
76551;BME280;65393;53.160;18.170;2023-02-15T14:36:00;102615.89;;;4.41;75.59
76551;BME280;65393;53.160;18.170;2023-02-15T14:38:48;102616.05;;;4.41;75.73
76551;BME280;65393;53.160;18.170;2023-02-15T14:41:23;102608.79;;;4.38;75.60
76551;BME280;65393;53.160;18.170;2023-02-15T14:46:48;102611.45;;;4.28;75.72
76551;BME280;65393;53.160;18.170;2023-02-15T14:59:43;102594.98;;;4.02;75.92
76551;BME280;65393;53.160;18.170;2023-02-15T15:02:26;102599.77;;;3.96;75.78
76551;BME280;65393;53.160;18.170;2023-02-15T15:05:15;102599.48;;;3.90;75.73
76551;BME280;65393;53.160;18.170;2023-02-15T15:07:50;102597.27;;;3.85;75.90
76551;BME280;65393;53.160;18.170;2023-02-15T15:15:38;102589.13;;;3.72;76.21
76551;BME280;65393;53.160;18.170;2023-02-15T15:18:44;102589.60;;;3.70;76.60
76551;BME280;65393;53.160;18.170;2023-02-15T15:27:37;102570.39;;;3.58;76.53
76551;BME280;65393;53.160;18.170;2023-02-15T15:43:34;102565.98;;;3.48;77.41
76551;BME280;65393;53.160;18.170;2023-02-15T15:49:10;102564.30;;;3.42;77.15
76551;BME280;65393;53.160;18.170;2023-02-15T15:51:40;102568.09;;;3.39;77.55
76551;BME280;65393;53.160;18.170;2023-02-15T15:54:14;102562.77;;;3.37;77.51
76551;BME280;65393;53.160;18.170;2023-02-15T15:56:45;102562.56;;;3.35;77.57
76551;BME280;65393;53.160;18.170;2023-02-15T15:59:24;102556.55;;;3.32;77.64
76551;BME280;65393;53.160;18.170;2023-02-15T16:01:52;102553.34;;;3.31;77.92
76551;BME280;65393;53.160;18.170;2023-02-15T16:04:28;102545.21;;;3.28;77.70
76551;BME280;65393;53.160;18.170;2023-02-15T16:10:00;102542.59;;;3.20;77.76
76551;BME280;65393;53.160;18.170;2023-02-15T16:12:30;102536.90;;;3.17;78.13
76551;BME280;65393;53.160;18.170;2023-02-15T16:14:57;102543.12;;;3.12;78.51